Gorch Fock — DRAX — position and weather

sailwx.info

Track history (hours):
 
Tides and Currents Weather Stations Pressure Air Temp Water Temp Dewpoint Dewpoint Depression Visibility Wind Speed Wind Dir Waves Ship Positions

Gorch Fock (Germany)

Ship's website: http://www.marine.de/01DB070000000001/CurrentBaseLink/W2698K4S188INFODE

Last reported at 2014-Sep-10 21:33 UTC. Time now 2014-Sep-22 10:19 UTC.
Position N 54°31' E 011°35'.
Warning: this ship's position is 11 days out of date.

Length 89 m; draft 5.4 m.

Type: Sailing vessel. MMSI: 211210280.

Date/timePositionNaut miles runAvg speedWind from/ knotsBaromVisibWave heightAir tempDewpointWater temp
2014-Sep-10 21:33N 54°31' E 011°35'4 4.2
2014-Sep-10 20:33N 54°29' E 011°41'5 5.3
2014-Sep-10 19:33N 54°27' E 011°50'4 4.3
2014-Sep-10 18:33N 54°27' E 011°57'4 3.6
2014-Sep-10 17:33N 54°27' E 012°03'6 5.5
2014-Sep-10 16:33N 54°26' E 012°13'4 3.6
2014-Sep-10 15:33N 54°28' E 012°17'4 4.2
2014-Sep-10 14:31N 54°32' E 012°20'4 4.2
2014-Sep-10 13:33N 54°35' E 012°24'5 5.2
2014-Sep-10 12:33N 54°38' E 012°32'5 5.2
2014-Sep-10 11:33N 54°40' E 012°40'8 7.7
2014-Sep-10 10:33N 54°46' E 012°50'7 6.6
2014-Sep-10 09:33N 54°50' E 012°58'5 5.4
2014-Sep-10 08:33N 54°53' E 013°06'11 4.7
2014-Sep-10 06:14N 54°56' E 013°24'5 8.1
2014-Sep-10 05:33N 54°50' E 013°26'8 8.2
2014-Sep-10 04:33N 54°42' E 013°29'8 8.1
2014-Sep-10 03:33N 54°40' E 013°42'10 9.9
2014-Sep-10 02:33N 54°40' E 013°59'10 9.7
2014-Sep-10 01:33N 54°39' E 014°16'83 4.6
2014-Sep-09 07:33N 55°43' E 015°47'55 5.5
2014-Sep-08 21:27N 56°19' E 017°03'14 7.0
2014-Sep-08 19:30N 56°32' E 017°09'13 6.4
2014-Sep-08 17:30N 56°44' E 017°16'7 6.5
2014-Sep-08 16:28N 56°51' E 017°19'6 6.9
2014-Sep-08 15:33N 56°57' E 017°23'7 7.2
2014-Sep-08 14:33N 57°04' E 017°26'7 7.1
2014-Sep-08 13:33N 57°11' E 017°29'8 7.8
2014-Sep-08 12:33N 57°18' E 017°33'5 4.7
2014-Sep-08 11:34N 57°23' E 017°35'8 8.4
2014-Sep-08 10:33N 57°31' E 017°41'10 8.2
2014-Sep-08 09:21N 57°35' E 017°57'10 9.2
2014-Sep-08 08:15N 57°38' E 018°15'1 1.3
2014-Sep-08 07:32N 57°38' E 018°17'0 0.0
2014-Sep-08 06:32N 57°38' E 018°17'0 0.0
2014-Sep-08 05:32N 57°38' E 018°17'0 0.0
2014-Sep-08 04:29N 57°38' E 018°17'0 0.0
2014-Sep-08 03:29N 57°38' E 018°17'0 0.0
2014-Sep-08 02:29N 57°38' E 018°17'0 0.0
2014-Sep-08 01:32N 57°38' E 018°17'0 0.0
2014-Sep-08 00:32N 57°38' E 018°17'0 0.0
2014-Sep-07 23:32N 57°38' E 018°17'0 0.0
2014-Sep-07 21:32N 57°38' E 018°17'0 0.0
2014-Sep-07 20:26N 57°38' E 018°17'0 0.0
2014-Sep-07 19:32N 57°38' E 018°17'0 0.0
2014-Sep-07 18:32N 57°38' E 018°17'0 0.0
2014-Sep-07 17:32N 57°38' E 018°17'0 0.0
2014-Sep-07 16:17N 57°38' E 018°17'0 0.0
2014-Sep-07 14:26N 57°38' E 018°17'0 0.0
2014-Sep-07 13:32N 57°38' E 018°17'0 0.0
2014-Sep-07 10:26N 57°38' E 018°17'0 0.0
2014-Sep-07 09:32N 57°38' E 018°17'0 0.0
2014-Sep-07 08:29N 57°38' E 018°17'0 0.0
2014-Sep-07 07:32N 57°38' E 018°17'0 0.0
2014-Sep-07 06:29N 57°38' E 018°17'0 0.0
2014-Sep-07 05:32N 57°38' E 018°17'0 0.0
2014-Sep-07 04:29N 57°38' E 018°17'0 0.0
2014-Sep-07 03:32N 57°38' E 018°17'0 0.0
2014-Sep-07 02:32N 57°38' E 018°17'0 0.0
2014-Sep-07 01:32N 57°38' E 018°17'0 0.0
2014-Sep-07 00:32N 57°38' E 018°17'0 0.0
2014-Sep-06 23:32N 57°38' E 018°17'0 0.0
2014-Sep-06 22:29N 57°38' E 018°17'0 0.0
2014-Sep-06 21:29N 57°38' E 018°17'0 0.0
2014-Sep-06 20:32N 57°38' E 018°17'0 0.0
2014-Sep-06 19:26N 57°38' E 018°17'0 0.0
2014-Sep-06 18:29N 57°38' E 018°17'0 0.0
2014-Sep-06 17:32N 57°38' E 018°17'0 0.0
2014-Sep-06 16:32N 57°38' E 018°17'0 0.0
2014-Sep-06 15:32N 57°38' E 018°17'0 0.0
2014-Sep-06 14:29N 57°38' E 018°17'0 0.0
2014-Sep-06 13:32N 57°38' E 018°17'0 0.0
2014-Sep-06 12:32N 57°38' E 018°17'0 0.0
2014-Sep-06 10:08N 57°38' E 018°17'0 0.0
2014-Sep-06 08:32N 57°38' E 018°17'0 0.0
2014-Sep-06 07:32N 57°38' E 018°17'0 0.0
2014-Sep-06 06:32N 57°38' E 018°17'0 0.0
2014-Sep-06 04:29N 57°38' E 018°17'0 0.0
2014-Sep-06 03:29N 57°38' E 018°17'0 0.0
2014-Sep-06 02:32N 57°38' E 018°17'0 0.0
2014-Sep-06 01:29N 57°38' E 018°17'0 0.0
2014-Sep-06 00:32N 57°38' E 018°17'0 0.0
2014-Sep-05 23:32N 57°38' E 018°17'0 0.0
2014-Sep-05 22:32N 57°38' E 018°17'0 0.0
2014-Sep-05 21:32N 57°38' E 018°17'0 0.0
2014-Sep-05 20:32N 57°38' E 018°17'0 0.0
2014-Sep-05 19:32N 57°38' E 018°17'0 0.0
2014-Sep-05 18:32N 57°38' E 018°17'0 0.0
2014-Sep-05 17:32N 57°38' E 018°17'0 0.0
2014-Sep-05 16:32N 57°38' E 018°17'0 0.0
2014-Sep-05 15:32N 57°38' E 018°17'0 0.0
2014-Sep-05 14:32N 57°38' E 018°17'0 0.0
2014-Sep-05 13:20N 57°38' E 018°17'0 0.0
2014-Sep-05 12:29N 57°38' E 018°17'0 0.0
2014-Sep-05 11:32N 57°38' E 018°17'0 0.0
2014-Sep-05 10:32N 57°38' E 018°17'0 0.0
2014-Sep-05 09:32N 57°38' E 018°17'0 0.0
2014-Sep-05 08:32N 57°38' E 018°17'2 2.0
2014-Sep-05 07:23N 57°39' E 018°13'9 5.1
2014-Sep-05 05:32N 57°39' E 017°55'18 3.5
2014-Sep-05 00:19N 57°21' E 017°47'2 3.2
2014-Sep-04 23:33N 57°18' E 017°47'4 4.1
2014-Sep-04 22:30N 57°14' E 017°46'5 4.2
2014-Sep-04 21:26N 57°10' E 017°46'5 4.8
2014-Sep-04 20:27N 57°05' E 017°46'4 4.1
2014-Sep-04 19:28N 57°01' E 017°45'3 3.6
2014-Sep-04 18:33N 56°58' E 017°44'4 3.5
2014-Sep-04 17:33N 56°54' E 017°43'3 3.3
2014-Sep-04 16:33N 56°51' E 017°42'4 3.4
2014-Sep-04 15:26N 56°47' E 017°41'3 3.7
2014-Sep-04 14:33N 56°44' E 017°40'4 4.0
2014-Sep-04 13:33N 56°40' E 017°39'4 3.8
2014-Sep-04 12:33N 56°36' E 017°39'4 3.7
2014-Sep-04 11:33N 56°33' E 017°38'8 1.9
2014-Sep-04 07:32N 56°25' E 017°36'4 3.7
2014-Sep-04 06:21N 56°21' E 017°34'3 3.6
2014-Sep-04 05:33N 56°18' E 017°34'3 3.4
2014-Sep-04 04:32N 56°15' E 017°33'4 3.6
2014-Sep-04 03:33N 56°11' E 017°32'4 3.9
2014-Sep-04 02:30N 56°07' E 017°31'4 4.4
2014-Sep-04 01:33N 56°03' E 017°31'4 4.1
2014-Sep-04 00:28N 55°58' E 017°31'4 4.3
2014-Sep-03 23:33N 55°54' E 017°32'5 4.8
2014-Sep-03 22:33N 55°50' E 017°34'5 5.2
2014-Sep-03 21:33N 55°44' E 017°35'2 1.4
2014-Sep-03 20:19N 55°43' E 017°36'7 3.9
2014-Sep-03 18:29N 55°50' E 017°38'39 6.5
2014-Sep-03 12:29N 55°36' E 016°33'8 7.4
2014-Sep-03 11:27N 55°32' E 016°22'8 7.4
2014-Sep-03 10:25N 55°28' E 016°10'35 2.5
2014-Sep-02 20:31N 54°54' E 015°58'6 5.5
2014-Sep-02 19:23N 54°59' E 015°52'4 5.2
2014-Sep-02 18:33N 55°03' E 015°48'5 4.8
2014-Sep-02 17:27N 55°08' E 015°44'5 4.9
2014-Sep-02 16:27N 55°12' E 015°40'4 4.3
2014-Sep-02 15:32N 55°16' E 015°37'5 4.6
2014-Sep-02 14:33N 55°20' E 015°34'5 4.6
2014-Sep-02 13:29N 55°24' E 015°31'5 5.5
2014-Sep-02 12:33N 55°28' E 015°26'6 5.5
2014-Sep-02 11:33N 55°32' E 015°18'9 9.1
2014-Sep-02 10:33N 55°31' E 015°02'9 9.3
2014-Sep-02 09:33N 55°26' E 014°48'8 8.5
2014-Sep-02 08:33N 55°21' E 014°36'8 8.3
2014-Sep-02 07:33N 55°14' E 014°28'9 8.8
2014-Sep-02 06:33N 55°07' E 014°18'9 8.8
2014-Sep-02 05:33N 55°00' E 014°08'9 8.5
2014-Sep-02 04:33N 54°58' E 013°54'9 8.5
2014-Sep-02 03:33N 54°55' E 013°40'8 8.1
2014-Sep-02 02:33N 54°52' E 013°27'8 8.1
2014-Sep-02 01:33N 54°50' E 013°13'7 7.4
2014-Sep-02 00:34N 54°48' E 013°01'8 7.6
2014-Sep-01 23:33N 54°45' E 012°48'7 7.2
2014-Sep-01 22:33N 54°42' E 012°37'7 7.4
2014-Sep-01 21:33N 54°38' E 012°27'7 7.4
2014-Sep-01 20:34N 54°33' E 012°17'8 8.2
2014-Sep-01 19:33N 54°25' E 012°11'7 7.0
2014-Sep-01 18:32N 54°24' E 011°59'7 7.3
2014-Sep-01 17:33N 54°24' E 011°47'  
Track history (hours):
 
Tides and Currents Weather Stations Pressure Air Temp Water Temp Dewpoint Dewpoint Depression Visibility Wind Speed Wind Dir Waves Ship Positions

Gorch Fock (Germany)

Ship's website: http://www.marine.de/01DB070000000001/CurrentBaseLink/W2698K4S188INFODE

Last reported at 2014-Sep-10 21:33 UTC. Time now 2014-Sep-22 10:19 UTC.
Position N 54°31' E 011°35'.
Warning: this ship's position is 11 days out of date.

Length 89 m; draft 5.4 m.

Type: Sailing vessel. MMSI: 211210280.

Date/timePositionNaut miles runAvg speedWind from/ knotsBaromVisibWave heightAir tempDewpointWater temp
2014-Sep-10 21:33N 54°31' E 011°35'4 4.2
2014-Sep-10 20:33N 54°29' E 011°41'5 5.3
2014-Sep-10 19:33N 54°27' E 011°50'4 4.3
2014-Sep-10 18:33N 54°27' E 011°57'4 3.6
2014-Sep-10 17:33N 54°27' E 012°03'6 5.5
2014-Sep-10 16:33N 54°26' E 012°13'4 3.6
2014-Sep-10 15:33N 54°28' E 012°17'4 4.2
2014-Sep-10 14:31N 54°32' E 012°20'4 4.2
2014-Sep-10 13:33N 54°35' E 012°24'5 5.2
2014-Sep-10 12:33N 54°38' E 012°32'5 5.2
2014-Sep-10 11:33N 54°40' E 012°40'8 7.7
2014-Sep-10 10:33N 54°46' E 012°50'7 6.6
2014-Sep-10 09:33N 54°50' E 012°58'5 5.4
2014-Sep-10 08:33N 54°53' E 013°06'11 4.7
2014-Sep-10 06:14N 54°56' E 013°24'5 8.1
2014-Sep-10 05:33N 54°50' E 013°26'8 8.2
2014-Sep-10 04:33N 54°42' E 013°29'8 8.1
2014-Sep-10 03:33N 54°40' E 013°42'10 9.9
2014-Sep-10 02:33N 54°40' E 013°59'10 9.7
2014-Sep-10 01:33N 54°39' E 014°16'83 4.6
2014-Sep-09 07:33N 55°43' E 015°47'55 5.5
2014-Sep-08 21:27N 56°19' E 017°03'14 7.0
2014-Sep-08 19:30N 56°32' E 017°09'13 6.4
2014-Sep-08 17:30N 56°44' E 017°16'7 6.5
2014-Sep-08 16:28N 56°51' E 017°19'6 6.9
2014-Sep-08 15:33N 56°57' E 017°23'7 7.2
2014-Sep-08 14:33N 57°04' E 017°26'7 7.1
2014-Sep-08 13:33N 57°11' E 017°29'8 7.8
2014-Sep-08 12:33N 57°18' E 017°33'5 4.7
2014-Sep-08 11:34N 57°23' E 017°35'8 8.4
2014-Sep-08 10:33N 57°31' E 017°41'10 8.2
2014-Sep-08 09:21N 57°35' E 017°57'10 9.2
2014-Sep-08 08:15N 57°38' E 018°15'1 1.3
2014-Sep-08 07:32N 57°38' E 018°17'0 0.0
2014-Sep-08 06:32N 57°38' E 018°17'0 0.0
2014-Sep-08 05:32N 57°38' E 018°17'0 0.0
2014-Sep-08 04:29N 57°38' E 018°17'0 0.0
2014-Sep-08 03:29N 57°38' E 018°17'0 0.0
2014-Sep-08 02:29N 57°38' E 018°17'0 0.0
2014-Sep-08 01:32N 57°38' E 018°17'0 0.0
2014-Sep-08 00:32N 57°38' E 018°17'0 0.0
2014-Sep-07 23:32N 57°38' E 018°17'0 0.0
2014-Sep-07 21:32N 57°38' E 018°17'0 0.0
2014-Sep-07 20:26N 57°38' E 018°17'0 0.0
2014-Sep-07 19:32N 57°38' E 018°17'0 0.0
2014-Sep-07 18:32N 57°38' E 018°17'0 0.0
2014-Sep-07 17:32N 57°38' E 018°17'0 0.0
2014-Sep-07 16:17N 57°38' E 018°17'0 0.0
2014-Sep-07 14:26N 57°38' E 018°17'0 0.0
2014-Sep-07 13:32N 57°38' E 018°17'0 0.0
2014-Sep-07 10:26N 57°38' E 018°17'0 0.0
2014-Sep-07 09:32N 57°38' E 018°17'0 0.0
2014-Sep-07 08:29N 57°38' E 018°17'0 0.0
2014-Sep-07 07:32N 57°38' E 018°17'0 0.0
2014-Sep-07 06:29N 57°38' E 018°17'0 0.0
2014-Sep-07 05:32N 57°38' E 018°17'0 0.0
2014-Sep-07 04:29N 57°38' E 018°17'0 0.0
2014-Sep-07 03:32N 57°38' E 018°17'0 0.0
2014-Sep-07 02:32N 57°38' E 018°17'0 0.0
2014-Sep-07 01:32N 57°38' E 018°17'0 0.0
2014-Sep-07 00:32N 57°38' E 018°17'0 0.0
2014-Sep-06 23:32N 57°38' E 018°17'0 0.0
2014-Sep-06 22:29N 57°38' E 018°17'0 0.0
2014-Sep-06 21:29N 57°38' E 018°17'0 0.0
2014-Sep-06 20:32N 57°38' E 018°17'0 0.0
2014-Sep-06 19:26N 57°38' E 018°17'0 0.0
2014-Sep-06 18:29N 57°38' E 018°17'0 0.0
2014-Sep-06 17:32N 57°38' E 018°17'0 0.0
2014-Sep-06 16:32N 57°38' E 018°17'0 0.0
2014-Sep-06 15:32N 57°38' E 018°17'0 0.0
2014-Sep-06 14:29N 57°38' E 018°17'0 0.0
2014-Sep-06 13:32N 57°38' E 018°17'0 0.0
2014-Sep-06 12:32N 57°38' E 018°17'0 0.0
2014-Sep-06 10:08N 57°38' E 018°17'0 0.0
2014-Sep-06 08:32N 57°38' E 018°17'0 0.0
2014-Sep-06 07:32N 57°38' E 018°17'0 0.0
2014-Sep-06 06:32N 57°38' E 018°17'0 0.0
2014-Sep-06 04:29N 57°38' E 018°17'0 0.0
2014-Sep-06 03:29N 57°38' E 018°17'0 0.0
2014-Sep-06 02:32N 57°38' E 018°17'0 0.0
2014-Sep-06 01:29N 57°38' E 018°17'0 0.0
2014-Sep-06 00:32N 57°38' E 018°17'0 0.0
2014-Sep-05 23:32N 57°38' E 018°17'0 0.0
2014-Sep-05 22:32N 57°38' E 018°17'0 0.0
2014-Sep-05 21:32N 57°38' E 018°17'0 0.0
2014-Sep-05 20:32N 57°38' E 018°17'0 0.0
2014-Sep-05 19:32N 57°38' E 018°17'0 0.0
2014-Sep-05 18:32N 57°38' E 018°17'0 0.0
2014-Sep-05 17:32N 57°38' E 018°17'0 0.0
2014-Sep-05 16:32N 57°38' E 018°17'0 0.0
2014-Sep-05 15:32N 57°38' E 018°17'0 0.0
2014-Sep-05 14:32N 57°38' E 018°17'0 0.0
2014-Sep-05 13:20N 57°38' E 018°17'0 0.0
2014-Sep-05 12:29N 57°38' E 018°17'0 0.0
2014-Sep-05 11:32N 57°38' E 018°17'0 0.0
2014-Sep-05 10:32N 57°38' E 018°17'0 0.0
2014-Sep-05 09:32N 57°38' E 018°17'0 0.0
2014-Sep-05 08:32N 57°38' E 018°17'2 2.0
2014-Sep-05 07:23N 57°39' E 018°13'9 5.1
2014-Sep-05 05:32N 57°39' E 017°55'18 3.5
2014-Sep-05 00:19N 57°21' E 017°47'2 3.2
2014-Sep-04 23:33N 57°18' E 017°47'4 4.1
2014-Sep-04 22:30N 57°14' E 017°46'5 4.2
2014-Sep-04 21:26N 57°10' E 017°46'5 4.8
2014-Sep-04 20:27N 57°05' E 017°46'4 4.1
2014-Sep-04 19:28N 57°01' E 017°45'3 3.6
2014-Sep-04 18:33N 56°58' E 017°44'4 3.5
2014-Sep-04 17:33N 56°54' E 017°43'3 3.3
2014-Sep-04 16:33N 56°51' E 017°42'4 3.4
2014-Sep-04 15:26N 56°47' E 017°41'3 3.7
2014-Sep-04 14:33N 56°44' E 017°40'4 4.0
2014-Sep-04 13:33N 56°40' E 017°39'4 3.8
2014-Sep-04 12:33N 56°36' E 017°39'4 3.7
2014-Sep-04 11:33N 56°33' E 017°38'8 1.9
2014-Sep-04 07:32N 56°25' E 017°36'4 3.7
2014-Sep-04 06:21N 56°21' E 017°34'3 3.6
2014-Sep-04 05:33N 56°18' E 017°34'3 3.4
2014-Sep-04 04:32N 56°15' E 017°33'4 3.6
2014-Sep-04 03:33N 56°11' E 017°32'4 3.9
2014-Sep-04 02:30N 56°07' E 017°31'4 4.4
2014-Sep-04 01:33N 56°03' E 017°31'4 4.1
2014-Sep-04 00:28N 55°58' E 017°31'4 4.3
2014-Sep-03 23:33N 55°54' E 017°32'5 4.8
2014-Sep-03 22:33N 55°50' E 017°34'5 5.2
2014-Sep-03 21:33N 55°44' E 017°35'2 1.4
2014-Sep-03 20:19N 55°43' E 017°36'7 3.9
2014-Sep-03 18:29N 55°50' E 017°38'39 6.5
2014-Sep-03 12:29N 55°36' E 016°33'8 7.4
2014-Sep-03 11:27N 55°32' E 016°22'8 7.4
2014-Sep-03 10:25N 55°28' E 016°10'35 2.5
2014-Sep-02 20:31N 54°54' E 015°58'6 5.5
2014-Sep-02 19:23N 54°59' E 015°52'4 5.2
2014-Sep-02 18:33N 55°03' E 015°48'5 4.8
2014-Sep-02 17:27N 55°08' E 015°44'5 4.9
2014-Sep-02 16:27N 55°12' E 015°40'4 4.3
2014-Sep-02 15:32N 55°16' E 015°37'5 4.6
2014-Sep-02 14:33N 55°20' E 015°34'5 4.6
2014-Sep-02 13:29N 55°24' E 015°31'5 5.5
2014-Sep-02 12:33N 55°28' E 015°26'6 5.5
2014-Sep-02 11:33N 55°32' E 015°18'9 9.1
2014-Sep-02 10:33N 55°31' E 015°02'9 9.3
2014-Sep-02 09:33N 55°26' E 014°48'8 8.5
2014-Sep-02 08:33N 55°21' E 014°36'8 8.3
2014-Sep-02 07:33N 55°14' E 014°28'9 8.8
2014-Sep-02 06:33N 55°07' E 014°18'9 8.8
2014-Sep-02 05:33N 55°00' E 014°08'9 8.5
2014-Sep-02 04:33N 54°58' E 013°54'9 8.5
2014-Sep-02 03:33N 54°55' E 013°40'8 8.1
2014-Sep-02 02:33N 54°52' E 013°27'8 8.1
2014-Sep-02 01:33N 54°50' E 013°13'7 7.4
2014-Sep-02 00:34N 54°48' E 013°01'8 7.6
2014-Sep-01 23:33N 54°45' E 012°48'7 7.2
2014-Sep-01 22:33N 54°42' E 012°37'7 7.4
2014-Sep-01 21:33N 54°38' E 012°27'7 7.4
2014-Sep-01 20:34N 54°33' E 012°17'8 8.2
2014-Sep-01 19:33N 54°25' E 012°11'7 7.0
2014-Sep-01 18:32N 54°24' E 011°59'7 7.3
2014-Sep-01 17:33N 54°24' E 011°47'  

Dump ship's entire track history